Time,TemperatureF,DewpointF,PressureIn,WindDirection,WindDirectionDegrees,WindSpeedMPH,WindSpeedGustMPH,Humidity,HourlyPrecipIn,Conditions,Clouds,dailyrainin,SolarRadiationWatts/m^2,SoftwareType,DateUTC
2013-11-26 00:02:00,41.3,39.2,30.23,West,276,2.0,4.0,92,0.00,,,0.00,0,WeatherCatV1.11B39,2013-11-26 07:02:00,
2013-11-26 00:07:00,41.3,39.2,30.23,North,353,3.0,3.0,92,0.00,,,0.00,0,WeatherCatV1.11B39,2013-11-26 07:07:00,
2013-11-26 00:12:00,41.5,39.4,30.24,NNW,348,0.0,1.0,92,0.00,,,0.00,0,WeatherCatV1.11B39,2013-11-26 07:12:00,
2013-11-26 00:17:00,41.7,39.5,30.23,NNW,348,0.0,0.0,92,0.00,,,0.00,0,WeatherCatV1.11B39,2013-11-26 07:17:00,
2013-11-26 00:22:00,41.7,39.5,30.23,NNW,348,1.0,1.0,92,0.00,,,0.00,0,WeatherCatV1.11B39,2013-11-26 07:22:00,
2013-11-26 00:27:00,41.7,39.5,30.24,North,353,0.0,0.0,92,0.00,,,0.00,0,WeatherCatV1.11B39,2013-11-26 07:27:00,
2013-11-26 00:32:00,41.7,39.5,30.24,North,353,0.0,0.0,92,0.00,,,0.00,0,WeatherCatV1.11B39,2013-11-26 07:32:00,
2013-11-26 00:37:00,41.6,39.5,30.23,North,353,0.0,1.0,92,0.00,,,0.00,0,WeatherCatV1.11B39,2013-11-26 07:37:00,
2013-11-26 00:42:00,41.5,39.4,30.23,North,353,0.0,0.0,92,0.00,,,0.00,0,WeatherCatV1.11B39,2013-11-26 07:42:00,
2013-11-26 00:47:00,41.4,39.0,30.24,North,353,0.0,0.0,91,0.00,,,0.00,0,WeatherCatV1.11B39,2013-11-26 07:47:00,
2013-11-26 00:52:00,41.3,38.9,30.23,North,353,0.0,1.0,91,0.00,,,0.00,0,WeatherCatV1.11B39,2013-11-26 07:52:00,
2013-11-26 00:57:00,41.2,38.8,30.23,North,353,0.0,0.0,91,0.00,,,0.00,0,WeatherCatV1.11B39,2013-11-26 07:57:00,
2013-11-26 01:02:00,41.1,38.7,30.23,North,353,0.0,3.0,91,0.00,,,0.00,0,WeatherCatV1.11B39,2013-11-26 08:02:00,
2013-11-26 01:07:00,41.0,38.6,30.23,North,353,0.0,1.0,91,0.00,,,0.00,0,WeatherCatV1.11B39,2013-11-26 08:07:00,
2013-11-26 01:12:00,40.9,38.5,30.23,North,353,2.0,4.0,91,0.00,,,0.00,0,WeatherCatV1.11B39,2013-11-26 08:12:00,
2013-11-26 01:17:00,40.9,38.5,30.23,North,353,0.0,1.0,91,0.00,,,0.00,0,WeatherCatV1.11B39,2013-11-26 08:17:00,
2013-11-26 01:22:00,40.9,38.8,30.23,North,353,0.0,1.0,92,0.00,,,0.00,0,WeatherCatV1.11B39,2013-11-26 08:22:00,
2013-11-26 01:27:00,40.9,38.8,30.23,NNW,348,2.0,4.0,92,0.00,,,0.00,0,WeatherCatV1.11B39,2013-11-26 08:27:00,
2013-11-26 01:32:00,41.0,38.9,30.23,NNW,348,0.0,3.0,92,0.00,,,0.00,0,WeatherCatV1.11B39,2013-11-26 08:32:00,
2013-11-26 01:37:00,41.1,39.0,30.23,NNW,348,0.0,3.0,92,0.00,,,0.00,0,WeatherCatV1.11B39,2013-11-26 08:37:00,
2013-11-26 01:42:00,41.2,39.1,30.23,NNW,348,2.0,2.0,92,0.00,,,0.00,0,WeatherCatV1.11B39,2013-11-26 08:42:00,
2013-11-26 01:47:00,41.3,39.2,30.23,NNW,343,1.0,1.0,92,0.00,,,0.00,0,WeatherCatV1.11B39,2013-11-26 08:47:00,
2013-11-26 01:52:00,41.4,39.3,30.23,NNW,343,1.0,1.0,92,0.00,,,0.00,0,WeatherCatV1.11B39,2013-11-26 08:52:00,
2013-11-26 01:57:00,41.6,39.7,30.23,NNW,348,0.0,1.0,93,0.00,,,0.00,0,WeatherCatV1.11B39,2013-11-26 08:57:00,
2013-11-26 02:02:00,41.6,39.7,30.23,NNW,343,2.0,2.0,93,0.00,,,0.00,0,WeatherCatV1.11B39,2013-11-26 09:02:00,
2013-11-26 02:07:00,41.6,39.5,30.23,SSW,209,2.0,5.0,92,0.00,,,0.00,0,WeatherCatV1.11B39,2013-11-26 09:07:00,
2013-11-26 02:12:00,41.6,39.5,30.23,SW,217,0.0,5.0,92,0.00,,,0.00,0,WeatherCatV1.11B39,2013-11-26 09:12:00,
2013-11-26 02:17:00,41.6,39.5,30.23,SW,217,2.0,4.0,92,0.00,,,0.00,0,WeatherCatV1.11B39,2013-11-26 09:17:00,
2013-11-26 02:22:00,41.6,39.7,30.23,SW,217,0.0,2.0,93,0.00,,,0.00,0,WeatherCatV1.11B39,2013-11-26 09:22:00,
2013-11-26 02:27:00,41.6,39.5,30.23,West,264,1.0,4.0,92,0.00,,,0.00,0,WeatherCatV1.11B39,2013-11-26 09:27:00,
2013-11-26 02:32:00,41.6,39.7,30.23,West,265,1.0,4.0,93,0.00,,,0.00,0,WeatherCatV1.11B39,2013-11-26 09:32:00,
2013-11-26 02:37:00,41.7,39.8,30.23,NE,36,3.0,3.0,93,0.00,,,0.00,0,WeatherCatV1.11B39,2013-11-26 09:37:00,
2013-11-26 02:42:00,41.9,40.0,30.23,NE,47,1.0,4.0,93,0.00,,,0.00,0,WeatherCatV1.11B39,2013-11-26 09:42:00,
2013-11-26 02:47:00,42.1,39.9,30.23,ENE,65,1.0,4.0,92,0.00,,,0.00,0,WeatherCatV1.11B39,2013-11-26 09:47:00,
2013-11-26 02:52:00,42.4,40.2,30.23,ENE,65,0.0,0.0,92,0.00,,,0.00,0,WeatherCatV1.11B39,2013-11-26 09:52:00,
2013-11-26 02:57:00,42.5,40.3,30.24,ENE,65,1.0,2.0,92,0.00,,,0.00,0,WeatherCatV1.11B39,2013-11-26 09:57:00,
2013-11-26 03:02:00,42.6,40.2,30.24,SE,136,2.0,4.0,91,0.00,,,0.00,0,WeatherCatV1.11B39,2013-11-26 10:02:00,
2013-11-26 03:07:00,42.9,40.2,30.23,SE,139,2.0,4.0,90,0.00,,,0.00,0,WeatherCatV1.11B39,2013-11-26 10:07:00,
2013-11-26 03:12:00,43.1,39.8,30.24,SE,145,5.0,5.0,88,0.00,,,0.00,0,WeatherCatV1.11B39,2013-11-26 10:12:00,
2013-11-26 03:17:00,43.6,39.4,30.24,SE,137,4.0,5.0,85,0.00,,,0.00,0,WeatherCatV1.11B39,2013-11-26 10:17:00,
2013-11-26 03:22:00,44.8,39.3,30.24,SSE,147,3.0,5.0,81,0.00,,,0.00,0,WeatherCatV1.11B39,2013-11-26 10:22:00,
2013-11-26 03:27:00,45.8,39.0,30.24,ESE,109,2.0,3.0,77,0.00,,,0.00,0,WeatherCatV1.11B39,2013-11-26 10:27:00,
2013-11-26 03:32:00,47.0,38.4,30.24,SE,132,4.0,5.0,72,0.00,,,0.00,0,WeatherCatV1.11B39,2013-11-26 10:32:00,
2013-11-26 03:37:00,47.8,38.5,30.24,ESE,116,4.0,13.0,70,0.00,,,0.00,0,WeatherCatV1.11B39,2013-11-26 10:37:00,
2013-11-26 03:42:00,49.2,37.9,30.24,ESE,111,3.0,10.0,65,0.00,,,0.00,0,WeatherCatV1.11B39,2013-11-26 10:42:00,
2013-11-26 03:47:00,50.4,38.3,30.24,SE,135,2.0,8.0,63,0.00,,,0.00,0,WeatherCatV1.11B39,2013-11-26 10:47:00,
2013-11-26 03:52:00,50.8,38.3,30.24,East,93,5.0,14.0,62,0.00,,,0.00,0,WeatherCatV1.11B39,2013-11-26 10:52:00,
2013-11-26 03:57:00,51.1,37.7,30.24,SE,124,5.0,8.0,60,0.00,,,0.00,0,WeatherCatV1.11B39,2013-11-26 10:57:00,
2013-11-26 04:02:00,51.4,38.0,30.24,ESE,109,4.0,9.0,60,0.00,,,0.00,0,WeatherCatV1.11B39,2013-11-26 11:02:00,
2013-11-26 04:07:00,51.6,37.7,30.24,SE,128,5.0,7.0,59,0.00,,,0.00,0,WeatherCatV1.11B39,2013-11-26 11:07:00,
2013-11-26 04:12:00,51.7,37.4,30.24,SE,137,4.0,13.0,58,0.00,,,0.00,0,WeatherCatV1.11B39,2013-11-26 11:12:00,
2013-11-26 04:17:00,52.1,37.3,30.24,ESE,106,9.0,15.0,57,0.00,,,0.00,0,WeatherCatV1.11B39,2013-11-26 11:17:00,
2013-11-26 04:22:00,52.5,36.8,30.24,ESE,118,3.0,13.0,55,0.00,,,0.00,0,WeatherCatV1.11B39,2013-11-26 11:22:00,
2013-11-26 04:27:00,52.6,36.9,30.24,ESE,106,0.0,2.0,55,0.00,,,0.00,0,WeatherCatV1.11B39,2013-11-26 11:27:00,
2013-11-26 04:32:00,52.5,36.8,30.23,East,93,4.0,5.0,55,0.00,,,0.00,0,WeatherCatV1.11B39,2013-11-26 11:32:00,
2013-11-26 04:37:00,52.4,36.7,30.24,ESE,111,5.0,9.0,55,0.00,,,0.00,0,WeatherCatV1.11B39,2013-11-26 11:37:00,
2013-11-26 04:42:00,52.4,36.2,30.24,East,95,5.0,10.0,54,0.00,,,0.00,0,WeatherCatV1.11B39,2013-11-26 11:42:00,
2013-11-26 04:47:00,52.6,36.4,30.24,ESE,106,5.0,8.0,54,0.00,,,0.00,0,WeatherCatV1.11B39,2013-11-26 11:47:00,
2013-11-26 04:52:00,52.7,36.5,30.24,SE,124,3.0,8.0,54,0.00,,,0.00,0,WeatherCatV1.11B39,2013-11-26 11:52:00,
2013-11-26 04:57:00,52.6,36.0,30.24,ESE,113,6.0,13.0,53,0.00,,,0.00,0,WeatherCatV1.11B39,2013-11-26 11:57:00,
2013-11-26 05:02:00,52.6,36.0,30.24,SE,130,4.0,6.0,53,0.00,,,0.00,0,WeatherCatV1.11B39,2013-11-26 12:02:00,
2013-11-26 05:07:00,52.4,35.8,30.24,ESE,102,2.0,9.0,53,0.00,,,0.00,0,WeatherCatV1.11B39,2013-11-26 12:07:00,
2013-11-26 05:12:00,52.4,35.8,30.24,ESE,102,4.0,10.0,53,0.00,,,0.00,0,WeatherCatV1.11B39,2013-11-26 12:12:00,
2013-11-26 05:17:00,52.6,35.5,30.24,ESE,118,6.0,14.0,52,0.00,,,0.00,0,WeatherCatV1.11B39,2013-11-26 12:17:00,
2013-11-26 05:22:00,52.8,35.7,30.24,SE,137,3.0,12.0,52,0.00,,,0.00,0,WeatherCatV1.11B39,2013-11-26 12:22:00,
2013-11-26 05:27:00,52.9,35.3,30.25,East,95,5.0,8.0,51,0.00,,,0.00,0,WeatherCatV1.11B39,2013-11-26 12:27:00,
2013-11-26 05:32:00,52.9,35.3,30.25,SE,128,4.0,6.0,51,0.00,,,0.00,0,WeatherCatV1.11B39,2013-11-26 12:32:00,
2013-11-26 05:37:00,52.8,35.7,30.25,East,101,5.0,9.0,52,0.00,,,0.00,0,WeatherCatV1.11B39,2013-11-26 12:37:00,
2013-11-26 05:42:00,52.7,35.1,30.25,ESE,105,3.0,10.0,51,0.00,,,0.00,0,WeatherCatV1.11B39,2013-11-26 12:42:00,
2013-11-26 05:47:00,52.7,35.1,30.25,East,101,3.0,4.0,51,0.00,,,0.00,0,WeatherCatV1.11B39,2013-11-26 12:47:00,
2013-11-26 05:52:00,52.6,35.5,30.25,ENE,68,3.0,9.0,52,0.00,,,0.00,0,WeatherCatV1.11B39,2013-11-26 12:52:00,
2013-11-26 05:57:00,52.7,35.1,30.25,East,86,8.0,8.0,51,0.00,,,0.00,0,WeatherCatV1.11B39,2013-11-26 12:57:00,
2013-11-26 06:02:00,52.9,35.3,30.25,ESE,111,8.0,10.0,51,0.00,,,0.00,0,WeatherCatV1.11B39,2013-11-26 13:02:00,
2013-11-26 06:07:00,52.9,35.3,30.25,East,87,6.0,10.0,51,0.00,,,0.00,0,WeatherCatV1.11B39,2013-11-26 13:07:00,
2013-11-26 06:12:00,53.1,35.0,30.25,SE,131,7.0,14.0,50,0.00,,,0.00,0,WeatherCatV1.11B39,2013-11-26 13:12:00,
2013-11-26 06:17:00,53.4,35.2,30.25,SE,125,6.0,11.0,50,0.00,,,0.00,0,WeatherCatV1.11B39,2013-11-26 13:17:00,
2013-11-26 06:22:00,53.4,34.7,30.25,ESE,103,4.0,5.0,49,0.00,,,0.00,0,WeatherCatV1.11B39,2013-11-26 13:22:00,
2013-11-26 06:27:00,53.4,34.7,30.25,ESE,105,4.0,10.0,49,0.00,,,0.00,0,WeatherCatV1.11B39,2013-11-26 13:27:00,
2013-11-26 06:32:00,53.5,34.8,30.25,ESE,117,6.0,12.0,49,0.00,,,0.00,0,WeatherCatV1.11B39,2013-11-26 13:32:00,
2013-11-26 06:37:00,53.6,34.9,30.25,ENE,67,8.0,12.0,49,0.00,,,0.00,0,WeatherCatV1.11B39,2013-11-26 13:37:00,
2013-11-26 06:42:00,53.6,34.9,30.25,ESE,121,6.0,13.0,49,0.00,,,0.00,0,WeatherCatV1.11B39,2013-11-26 13:42:00,
2013-11-26 06:47:00,53.5,34.8,30.25,East,98,7.0,9.0,49,0.00,,,0.00,0,WeatherCatV1.11B39,2013-11-26 13:47:00,
2013-11-26 06:52:00,53.3,34.6,30.25,ESE,120,5.0,14.0,49,0.00,,,0.00,0,WeatherCatV1.11B39,2013-11-26 13:52:00,
2013-11-26 06:57:00,53.2,35.0,30.25,ESE,109,9.0,10.0,50,0.00,,,0.00,0,WeatherCatV1.11B39,2013-11-26 13:57:00,
2013-11-26 07:02:00,53.2,34.5,30.25,ESE,106,5.0,15.0,49,0.00,,,0.00,5,WeatherCatV1.11B39,2013-11-26 14:02:00,
2013-11-26 07:07:00,53.2,35.0,30.24,ENE,74,7.0,11.0,50,0.00,,,0.00,7,WeatherCatV1.11B39,2013-11-26 14:07:00,
2013-11-26 07:12:00,53.2,34.5,30.25,East,98,7.0,15.0,49,0.00,,,0.00,9,WeatherCatV1.11B39,2013-11-26 14:12:00,
2013-11-26 07:17:00,53.3,34.6,30.25,ENE,74,14.0,14.0,49,0.00,,,0.00,11,WeatherCatV1.11B39,2013-11-26 14:17:00,
2013-11-26 07:22:00,53.4,34.7,30.25,ENE,78,8.0,19.0,49,0.00,,,0.00,12,WeatherCatV1.11B39,2013-11-26 14:22:00,
2013-11-26 07:27:00,53.5,34.8,30.25,ESE,103,4.0,11.0,49,0.00,,,0.00,18,WeatherCatV1.11B39,2013-11-26 14:27:00,
2013-11-26 07:32:00,53.6,34.4,30.24,East,84,17.0,17.0,48,0.00,,,0.00,33,WeatherCatV1.11B39,2013-11-26 14:32:00,
2013-11-26 07:37:00,53.9,34.7,30.24,East,86,3.0,15.0,48,0.00,,,0.00,49,WeatherCatV1.11B39,2013-11-26 14:37:00,
2013-11-26 07:42:00,54.2,34.4,30.25,East,93,7.0,15.0,47,0.00,,,0.00,63,WeatherCatV1.11B39,2013-11-26 14:42:00,
2013-11-26 07:47:00,54.5,34.7,30.25,NE,56,4.0,15.0,47,0.00,,,0.00,83,WeatherCatV1.11B39,2013-11-26 14:47:00,
2013-11-26 07:52:00,54.7,34.3,30.25,East,95,13.0,14.0,46,0.00,,,0.00,97,WeatherCatV1.11B39,2013-11-26 14:52:00,
2013-11-26 07:57:00,54.9,34.5,30.25,East,80,16.0,17.0,46,0.00,,,0.00,114,WeatherCatV1.11B39,2013-11-26 14:57:00,
2013-11-26 08:02:00,55.0,34.6,30.25,ESE,110,9.0,22.0,46,0.00,,,0.00,135,WeatherCatV1.11B39,2013-11-26 15:02:00,
2013-11-26 08:07:00,55.1,34.1,30.26,East,99,12.0,20.0,45,0.00,,,0.00,153,WeatherCatV1.11B39,2013-11-26 15:07:00,
2013-11-26 08:12:00,55.3,34.3,30.25,East,91,9.0,18.0,45,0.00,,,0.00,172,WeatherCatV1.11B39,2013-11-26 15:12:00,
2013-11-26 08:17:00,55.5,33.9,30.26,East,82,10.0,23.0,44,0.00,,,0.00,190,WeatherCatV1.11B39,2013-11-26 15:17:00,
2013-11-26 08:22:00,55.6,34.0,30.26,ENE,66,11.0,25.0,44,0.00,,,0.00,202,WeatherCatV1.11B39,2013-11-26 15:22:00,
2013-11-26 08:27:00,55.7,34.1,30.25,ESE,107,4.0,18.0,44,0.00,,,0.00,218,WeatherCatV1.11B39,2013-11-26 15:27:00,
2013-11-26 08:32:00,55.8,34.2,30.25,East,84,13.0,13.0,44,0.00,,,0.00,234,WeatherCatV1.11B39,2013-11-26 15:32:00,
2013-11-26 08:37:00,56.0,34.4,30.26,ESE,114,8.0,17.0,44,0.00,,,0.00,248,WeatherCatV1.11B39,2013-11-26 15:37:00,
2013-11-26 08:42:00,56.1,33.9,30.26,ENE,71,14.0,17.0,43,0.00,,,0.00,262,WeatherCatV1.11B39,2013-11-26 15:42:00,
2013-11-26 08:47:00,56.2,34.0,30.26,ESE,107,10.0,22.0,43,0.00,,,0.00,279,WeatherCatV1.11B39,2013-11-26 15:47:00,
2013-11-26 08:52:00,56.3,34.1,30.26,NE,49,8.0,21.0,43,0.00,,,0.00,294,WeatherCatV1.11B39,2013-11-26 15:52:00,
2013-11-26 08:57:00,56.5,34.3,30.26,East,84,7.0,20.0,43,0.00,,,0.00,306,WeatherCatV1.11B39,2013-11-26 15:57:00,
2013-11-26 09:02:00,56.6,34.4,30.26,East,82,11.0,26.0,43,0.00,,,0.00,323,WeatherCatV1.11B39,2013-11-26 16:02:00,
2013-11-26 09:07:00,56.8,34.5,30.27,East,80,5.0,13.0,43,0.00,,,0.00,334,WeatherCatV1.11B39,2013-11-26 16:07:00,
2013-11-26 09:12:00,57.1,33.6,30.27,ESE,107,4.0,13.0,41,0.00,,,0.00,348,WeatherCatV1.11B39,2013-11-26 16:12:00,
2013-11-26 09:17:00,57.4,33.9,30.27,East,87,3.0,11.0,41,0.00,,,0.00,364,WeatherCatV1.11B39,2013-11-26 16:17:00,
2013-11-26 09:22:00,57.7,34.2,30.26,East,82,7.0,10.0,41,0.00,,,0.00,378,WeatherCatV1.11B39,2013-11-26 16:22:00,
2013-11-26 09:27:00,58.0,34.4,30.26,ESE,121,8.0,16.0,41,0.00,,,0.00,388,WeatherCatV1.11B39,2013-11-26 16:27:00,
2013-11-26 09:32:00,58.3,33.5,30.26,ESE,109,5.0,18.0,39,0.00,,,0.00,404,WeatherCatV1.11B39,2013-11-26 16:32:00,
2013-11-26 09:37:00,58.7,33.8,30.27,ENE,78,6.0,20.0,39,0.00,,,0.00,417,WeatherCatV1.11B39,2013-11-26 16:37:00,
2013-11-26 09:42:00,58.7,32.5,30.26,East,89,9.0,18.0,37,0.00,,,0.00,427,WeatherCatV1.11B39,2013-11-26 16:42:00,
2013-11-26 09:47:00,59.0,32.8,30.26,East,80,9.0,14.0,37,0.00,,,0.00,441,WeatherCatV1.11B39,2013-11-26 16:47:00,
2013-11-26 09:52:00,59.1,32.2,30.26,NNE,13,7.0,14.0,36,0.00,,,0.00,452,WeatherCatV1.11B39,2013-11-26 16:52:00,
2013-11-26 09:57:00,59.5,32.5,30.27,ENE,77,8.0,18.0,36,0.00,,,0.00,462,WeatherCatV1.11B39,2013-11-26 16:57:00,
2013-11-26 10:02:00,59.5,32.5,30.27,East,86,6.0,14.0,36,0.00,,,0.00,476,WeatherCatV1.11B39,2013-11-26 17:02:00,
2013-11-26 10:07:00,59.7,32.7,30.26,ENE,72,7.0,15.0,36,0.00,,,0.00,487,WeatherCatV1.11B39,2013-11-26 17:07:00,
2013-11-26 10:12:00,59.5,32.5,30.27,ESE,102,7.0,16.0,36,0.00,,,0.00,494,WeatherCatV1.11B39,2013-11-26 17:12:00,
2013-11-26 10:17:00,59.6,31.9,30.27,East,88,13.0,26.0,35,0.00,,,0.00,506,WeatherCatV1.11B39,2013-11-26 17:17:00,
2013-11-26 10:22:00,59.7,32.7,30.27,ESE,107,8.0,17.0,36,0.00,,,0.00,515,WeatherCatV1.11B39,2013-11-26 17:22:00,
2013-11-26 10:27:00,60.3,32.5,30.27,ENE,77,18.0,19.0,35,0.00,,,0.00,524,WeatherCatV1.11B39,2013-11-26 17:27:00,
2013-11-26 10:32:00,59.9,32.2,30.27,East,98,8.0,17.0,35,0.00,,,0.00,533,WeatherCatV1.11B39,2013-11-26 17:32:00,
2013-11-26 10:37:00,59.8,32.1,30.26,ESE,119,12.0,23.0,35,0.00,,,0.00,541,WeatherCatV1.11B39,2013-11-26 17:37:00,
2013-11-26 10:42:00,59.8,32.1,30.26,East,95,5.0,17.0,35,0.00,,,0.00,548,WeatherCatV1.11B39,2013-11-26 17:42:00,
2013-11-26 10:47:00,60.4,32.6,30.26,East,101,13.0,19.0,35,0.00,,,0.00,557,WeatherCatV1.11B39,2013-11-26 17:47:00,
2013-11-26 10:52:00,60.7,32.9,30.26,East,91,9.0,23.0,35,0.00,,,0.00,564,WeatherCatV1.11B39,2013-11-26 17:52:00,
2013-11-26 10:57:00,60.7,32.2,30.26,ENE,64,8.0,16.0,34,0.00,,,0.00,570,WeatherCatV1.11B39,2013-11-26 17:57:00,
2013-11-26 11:02:00,60.6,32.1,30.26,ESE,119,14.0,24.0,34,0.00,,,0.00,578,WeatherCatV1.11B39,2013-11-26 18:02:00,
2013-11-26 11:07:00,60.5,32.7,30.26,NE,53,10.0,15.0,35,0.00,,,0.00,582,WeatherCatV1.11B39,2013-11-26 18:07:00,
2013-11-26 11:12:00,60.8,32.3,30.26,SSE,147,8.0,15.0,34,0.00,,,0.00,587,WeatherCatV1.11B39,2013-11-26 18:12:00,
2013-11-26 11:17:00,61.3,32.7,30.25,East,91,11.0,17.0,34,0.00,,,0.00,594,WeatherCatV1.11B39,2013-11-26 18:17:00,
2013-11-26 11:22:00,61.3,32.0,30.25,ENE,66,13.0,18.0,33,0.00,,,0.00,598,WeatherCatV1.11B39,2013-11-26 18:22:00,
2013-11-26 11:27:00,61.7,32.3,30.24,East,91,16.0,18.0,33,0.00,,,0.00,603,WeatherCatV1.11B39,2013-11-26 18:27:00,
2013-11-26 11:32:00,61.6,32.2,30.24,ENE,76,5.0,18.0,33,0.00,,,0.00,605,WeatherCatV1.11B39,2013-11-26 18:32:00,
2013-11-26 11:37:00,61.8,30.8,30.24,NE,55,16.0,22.0,31,0.00,,,0.00,612,WeatherCatV1.11B39,2013-11-26 18:37:00,
2013-11-26 11:42:00,61.6,32.2,30.23,East,89,8.0,20.0,33,0.00,,,0.00,612,WeatherCatV1.11B39,2013-11-26 18:42:00,
2013-11-26 11:47:00,61.9,30.9,30.23,East,90,11.0,19.0,31,0.00,,,0.00,615,WeatherCatV1.11B39,2013-11-26 18:47:00,
2013-11-26 11:52:00,62.1,31.1,30.22,ESE,121,16.0,18.0,31,0.00,,,0.00,617,WeatherCatV1.11B39,2013-11-26 18:52:00,
2013-11-26 11:57:00,62.2,31.2,30.22,ENE,77,11.0,17.0,31,0.00,,,0.00,619,WeatherCatV1.11B39,2013-11-26 18:57:00,
2013-11-26 12:02:00,62.5,30.6,30.22,ESE,103,9.0,19.0,30,0.00,,,0.00,621,WeatherCatV1.11B39,2013-11-26 19:02:00,
2013-11-26 12:07:00,62.2,30.4,30.22,East,84,15.0,22.0,30,0.00,,,0.00,621,WeatherCatV1.11B39,2013-11-26 19:07:00,
2013-11-26 12:12:00,62.5,30.6,30.21,ESE,104,9.0,12.0,30,0.00,,,0.00,621,WeatherCatV1.11B39,2013-11-26 19:12:00,
2013-11-26 12:17:00,62.5,30.6,30.21,ESE,103,19.0,24.0,30,0.00,,,0.00,622,WeatherCatV1.11B39,2013-11-26 19:17:00,
2013-11-26 12:22:00,62.7,30.0,30.21,East,79,11.0,21.0,29,0.00,,,0.00,622,WeatherCatV1.11B39,2013-11-26 19:22:00,
2013-11-26 12:27:00,62.9,30.2,30.20,ESE,107,14.0,21.0,29,0.00,,,0.00,621,WeatherCatV1.11B39,2013-11-26 19:27:00,
2013-11-26 12:32:00,63.0,31.1,30.20,NE,47,9.0,14.0,30,0.00,,,0.00,619,WeatherCatV1.11B39,2013-11-26 19:32:00,
2013-11-26 12:37:00,63.3,30.5,30.20,ESE,114,9.0,21.0,29,0.00,,,0.00,619,WeatherCatV1.11B39,2013-11-26 19:37:00,
2013-11-26 12:42:00,63.5,30.7,30.19,East,99,10.0,11.0,29,0.00,,,0.00,615,WeatherCatV1.11B39,2013-11-26 19:42:00,
2013-11-26 12:47:00,63.6,30.8,30.19,SE,128,6.0,16.0,29,0.00,,,0.00,612,WeatherCatV1.11B39,2013-11-26 19:47:00,
2013-11-26 12:52:00,63.5,29.8,30.19,East,100,8.0,17.0,28,0.00,,,0.00,610,WeatherCatV1.11B39,2013-11-26 19:52:00,
2013-11-26 12:57:00,63.5,29.8,30.19,SE,134,8.0,15.0,28,0.00,,,0.00,606,WeatherCatV1.11B39,2013-11-26 19:57:00,
2013-11-26 13:02:00,63.4,29.7,30.19,East,82,13.0,18.0,28,0.00,,,0.00,601,WeatherCatV1.11B39,2013-11-26 20:02:00,
2013-11-26 13:07:00,63.5,29.8,30.18,East,86,17.0,23.0,28,0.00,,,0.00,598,WeatherCatV1.11B39,2013-11-26 20:07:00,
2013-11-26 13:12:00,63.5,29.8,30.18,ESE,107,12.0,19.0,28,0.00,,,0.00,594,WeatherCatV1.11B39,2013-11-26 20:12:00,
2013-11-26 13:17:00,63.6,30.8,30.18,East,97,14.0,18.0,29,0.00,,,0.00,587,WeatherCatV1.11B39,2013-11-26 20:17:00,
2013-11-26 13:22:00,63.9,31.9,30.17,East,100,5.0,17.0,30,0.00,,,0.00,582,WeatherCatV1.11B39,2013-11-26 20:22:00,
2013-11-26 13:27:00,63.9,30.2,30.17,SE,134,5.0,12.0,28,0.00,,,0.00,575,WeatherCatV1.11B39,2013-11-26 20:27:00,
2013-11-26 13:32:00,63.9,31.0,30.17,East,82,13.0,17.0,29,0.00,,,0.00,568,WeatherCatV1.11B39,2013-11-26 20:32:00,
2013-11-26 13:37:00,64.1,31.2,30.17,NE,39,10.0,11.0,29,0.00,,,0.00,563,WeatherCatV1.11B39,2013-11-26 20:37:00,
2013-11-26 13:42:00,64.3,31.4,30.17,ESE,111,12.0,16.0,29,0.00,,,0.00,555,WeatherCatV1.11B39,2013-11-26 20:42:00,
2013-11-26 13:47:00,64.3,31.4,30.17,ESE,117,11.0,22.0,29,0.00,,,0.00,547,WeatherCatV1.11B39,2013-11-26 20:47:00,
2013-11-26 13:52:00,64.3,31.4,30.17,East,98,14.0,14.0,29,0.00,,,0.00,538,WeatherCatV1.11B39,2013-11-26 20:52:00,
2013-11-26 13:57:00,64.3,31.4,30.17,East,100,8.0,16.0,29,0.00,,,0.00,531,WeatherCatV1.11B39,2013-11-26 20:57:00,
2013-11-26 14:02:00,64.8,30.9,30.16,East,84,13.0,21.0,28,0.00,,,0.00,520,WeatherCatV1.11B39,2013-11-26 21:02:00,
2013-11-26 14:07:00,64.3,31.4,30.16,East,89,17.0,25.0,29,0.00,,,0.00,513,WeatherCatV1.11B39,2013-11-26 21:07:00,
2013-11-26 14:12:00,63.9,31.0,30.16,ENE,76,11.0,14.0,29,0.00,,,0.00,503,WeatherCatV1.11B39,2013-11-26 21:12:00,
2013-11-26 14:17:00,64.4,31.5,30.16,ENE,70,11.0,16.0,29,0.00,,,0.00,490,WeatherCatV1.11B39,2013-11-26 21:17:00,
2013-11-26 14:22:00,64.9,31.9,30.16,ENE,72,8.0,18.0,29,0.00,,,0.00,482,WeatherCatV1.11B39,2013-11-26 21:22:00,
2013-11-26 14:27:00,64.6,31.6,30.16,ENE,72,9.0,13.0,29,0.00,,,0.00,473,WeatherCatV1.11B39,2013-11-26 21:27:00,
2013-11-26 14:32:00,64.9,32.7,30.16,East,90,9.0,14.0,30,0.00,,,0.00,459,WeatherCatV1.11B39,2013-11-26 21:32:00,
2013-11-26 14:37:00,64.6,32.5,30.16,ESE,102,2.0,11.0,30,0.00,,,0.00,448,WeatherCatV1.11B39,2013-11-26 21:37:00,
2013-11-26 14:42:00,64.9,32.7,30.16,ENE,75,10.0,14.0,30,0.00,,,0.00,436,WeatherCatV1.11B39,2013-11-26 21:42:00,
2013-11-26 14:47:00,64.7,31.7,30.16,East,85,10.0,15.0,29,0.00,,,0.00,422,WeatherCatV1.11B39,2013-11-26 21:47:00,
2013-11-26 14:52:00,64.5,31.5,30.16,South,174,8.0,15.0,29,0.00,,,0.00,411,WeatherCatV1.11B39,2013-11-26 21:52:00,
2013-11-26 14:57:00,64.3,31.4,30.16,East,95,10.0,14.0,29,0.00,,,0.00,401,WeatherCatV1.11B39,2013-11-26 21:57:00,
2013-11-26 15:02:00,64.4,31.5,30.16,East,79,8.0,15.0,29,0.00,,,0.00,385,WeatherCatV1.11B39,2013-11-26 22:02:00,
2013-11-26 15:07:00,64.3,31.4,30.15,ENE,76,6.0,17.0,29,0.00,,,0.00,373,WeatherCatV1.11B39,2013-11-26 22:07:00,
2013-11-26 15:12:00,64.3,31.4,30.16,ESE,104,12.0,14.0,29,0.00,,,0.00,359,WeatherCatV1.11B39,2013-11-26 22:12:00,
2013-11-26 15:17:00,64.1,31.2,30.15,East,101,17.0,22.0,29,0.00,,,0.00,345,WeatherCatV1.11B39,2013-11-26 22:17:00,
2013-11-26 15:22:00,64.3,32.2,30.15,ESE,115,5.0,10.0,30,0.00,,,0.00,330,WeatherCatV1.11B39,2013-11-26 22:22:00,
2013-11-26 15:27:00,64.2,32.1,30.15,East,92,11.0,17.0,30,0.00,,,0.00,318,WeatherCatV1.11B39,2013-11-26 22:27:00,
2013-11-26 15:32:00,64.3,32.2,30.15,East,91,3.0,14.0,30,0.00,,,0.00,302,WeatherCatV1.11B39,2013-11-26 22:32:00,
2013-11-26 15:37:00,64.1,32.0,30.15,ENE,69,10.0,13.0,30,0.00,,,0.00,288,WeatherCatV1.11B39,2013-11-26 22:37:00,
2013-11-26 15:42:00,63.8,30.9,30.15,East,93,13.0,19.0,29,0.00,,,0.00,271,WeatherCatV1.11B39,2013-11-26 22:42:00,
2013-11-26 15:47:00,63.6,31.6,30.15,East,100,10.0,11.0,30,0.00,,,0.00,257,WeatherCatV1.11B39,2013-11-26 22:47:00,
2013-11-26 15:52:00,63.2,31.3,30.15,East,84,13.0,18.0,30,0.00,,,0.00,241,WeatherCatV1.11B39,2013-11-26 22:52:00,
2013-11-26 15:57:00,63.1,32.0,30.14,ENE,64,8.0,11.0,31,0.00,,,0.00,221,WeatherCatV1.11B39,2013-11-26 22:57:00,
2013-11-26 16:02:00,63.1,31.2,30.15,SSE,148,16.0,19.0,30,0.00,,,0.00,202,WeatherCatV1.11B39,2013-11-26 23:02:00,
2013-11-26 16:07:00,62.9,31.8,30.14,ESE,106,7.0,16.0,31,0.00,,,0.00,183,WeatherCatV1.11B39,2013-11-26 23:07:00,
2013-11-26 16:12:00,62.7,31.6,30.14,East,82,14.0,16.0,31,0.00,,,0.00,162,WeatherCatV1.11B39,2013-11-26 23:12:00,
2013-11-26 16:17:00,62.6,32.3,30.14,ENE,68,14.0,18.0,32,0.00,,,0.00,142,WeatherCatV1.11B39,2013-11-26 23:17:00,
2013-11-26 16:22:00,62.5,32.2,30.14,NE,47,13.0,18.0,32,0.00,,,0.00,130,WeatherCatV1.11B39,2013-11-26 23:22:00,
2013-11-26 16:27:00,62.3,32.1,30.14,ENE,68,17.0,19.0,32,0.00,,,0.00,60,WeatherCatV1.11B39,2013-11-26 23:27:00,
2013-11-26 16:32:00,62.2,32.0,30.14,East,81,7.0,17.0,32,0.00,,,0.00,28,WeatherCatV1.11B39,2013-11-26 23:32:00,
2013-11-26 16:37:00,61.9,31.7,30.14,East,85,9.0,14.0,32,0.00,,,0.00,21,WeatherCatV1.11B39,2013-11-26 23:37:00,
2013-11-26 16:42:00,61.8,32.4,30.14,ENE,70,8.0,16.0,33,0.00,,,0.00,21,WeatherCatV1.11B39,2013-11-26 23:42:00,
2013-11-26 16:47:00,61.5,32.1,30.13,East,79,6.0,19.0,33,0.00,,,0.00,19,WeatherCatV1.11B39,2013-11-26 23:47:00,
2013-11-26 16:52:00,61.3,32.0,30.14,East,80,8.0,16.0,33,0.00,,,0.00,16,WeatherCatV1.11B39,2013-11-26 23:52:00,
2013-11-26 16:57:00,61.0,31.7,30.14,East,91,3.0,10.0,33,0.00,,,0.00,12,WeatherCatV1.11B39,2013-11-26 23:57:00,
2013-11-26 17:02:00,60.8,31.5,30.13,ENE,78,15.0,22.0,33,0.00,,,0.00,9,WeatherCatV1.11B39,2013-11-27 00:02:00,
2013-11-26 17:07:00,60.6,32.1,30.13,East,100,4.0,13.0,34,0.00,,,0.00,9,WeatherCatV1.11B39,2013-11-27 00:07:00,
2013-11-26 17:12:00,60.3,31.8,30.13,ENE,70,5.0,15.0,34,0.00,,,0.00,5,WeatherCatV1.11B39,2013-11-27 00:12:00,
2013-11-26 17:17:00,60.1,32.4,30.13,ENE,72,10.0,19.0,35,0.00,,,0.00,5,WeatherCatV1.11B39,2013-11-27 00:17:00,
2013-11-26 17:22:00,59.8,32.1,30.13,NE,39,9.0,13.0,35,0.00,,,0.00,0,WeatherCatV1.11B39,2013-11-27 00:22:00,
2013-11-26 17:27:00,59.6,31.2,30.13,East,90,18.0,18.0,34,0.00,,,0.00,0,WeatherCatV1.11B39,2013-11-27 00:27:00,
2013-11-26 17:32:00,59.5,31.1,30.13,SE,132,10.0,13.0,34,0.00,,,0.00,0,WeatherCatV1.11B39,2013-11-27 00:32:00,
2013-11-26 17:37:00,59.2,31.6,30.13,ENE,70,8.0,21.0,35,0.00,,,0.00,0,WeatherCatV1.11B39,2013-11-27 00:37:00,
2013-11-26 17:42:00,59.1,30.8,30.13,ENE,69,18.0,20.0,34,0.00,,,0.00,0,WeatherCatV1.11B39,2013-11-27 00:42:00,
2013-11-26 17:47:00,59.1,30.8,30.14,East,98,12.0,15.0,34,0.00,,,0.00,0,WeatherCatV1.11B39,2013-11-27 00:47:00,
2013-11-26 17:52:00,59.0,31.4,30.14,ENE,57,22.0,22.0,35,0.00,,,0.00,0,WeatherCatV1.11B39,2013-11-27 00:52:00,
2013-11-26 17:57:00,58.9,31.3,30.14,East,98,8.0,22.0,35,0.00,,,0.00,0,WeatherCatV1.11B39,2013-11-27 00:57:00,
2013-11-26 18:02:00,58.8,31.2,30.14,East,96,10.0,19.0,35,0.00,,,0.00,0,WeatherCatV1.11B39,2013-11-27 01:02:00,
2013-11-26 18:07:00,58.7,31.1,30.14,East,86,3.0,18.0,35,0.00,,,0.00,0,WeatherCatV1.11B39,2013-11-27 01:07:00,
2013-11-26 18:12:00,58.5,30.9,30.15,ENE,64,11.0,18.0,35,0.00,,,0.00,0,WeatherCatV1.11B39,2013-11-27 01:12:00,
2013-11-26 18:17:00,58.6,31.0,30.15,East,91,4.0,13.0,35,0.00,,,0.00,0,WeatherCatV1.11B39,2013-11-27 01:17:00,
2013-11-26 18:22:00,58.3,30.8,30.15,East,85,11.0,13.0,35,0.00,,,0.00,0,WeatherCatV1.11B39,2013-11-27 01:22:00,
2013-11-26 18:27:00,58.2,30.7,30.15,East,80,11.0,24.0,35,0.00,,,0.00,0,WeatherCatV1.11B39,2013-11-27 01:27:00,
2013-11-26 18:32:00,58.1,30.6,30.15,ENE,76,14.0,17.0,35,0.00,,,0.00,0,WeatherCatV1.11B39,2013-11-27 01:32:00,
2013-11-26 18:37:00,58.0,30.5,30.15,ENE,57,10.0,19.0,35,0.00,,,0.00,0,WeatherCatV1.11B39,2013-11-27 01:37:00,
2013-11-26 18:42:00,57.9,31.1,30.14,East,84,5.0,11.0,36,0.00,,,0.00,0,WeatherCatV1.11B39,2013-11-27 01:42:00,
2013-11-26 18:47:00,57.8,30.3,30.14,South,180,9.0,14.0,35,0.00,,,0.00,0,WeatherCatV1.11B39,2013-11-27 01:47:00,
2013-11-26 18:52:00,57.8,30.3,30.15,East,93,8.0,19.0,35,0.00,,,0.00,0,WeatherCatV1.11B39,2013-11-27 01:52:00,
2013-11-26 18:57:00,57.8,30.3,30.15,ENE,77,6.0,16.0,35,0.00,,,0.00,0,WeatherCatV1.11B39,2013-11-27 01:57:00,
2013-11-26 19:02:00,57.7,30.9,30.15,East,95,11.0,16.0,36,0.00,,,0.00,0,WeatherCatV1.11B39,2013-11-27 02:02:00,
2013-11-26 19:07:00,57.6,30.2,30.15,SE,128,12.0,18.0,35,0.00,,,0.00,0,WeatherCatV1.11B39,2013-11-27 02:07:00,
2013-11-26 19:12:00,57.5,30.8,30.15,East,88,6.0,14.0,36,0.00,,,0.00,0,WeatherCatV1.11B39,2013-11-27 02:12:00,
2013-11-26 19:17:00,57.4,30.7,30.15,ESE,114,9.0,9.0,36,0.00,,,0.00,0,WeatherCatV1.11B39,2013-11-27 02:17:00,
2013-11-26 19:22:00,57.5,30.8,30.14,ESE,109,4.0,14.0,36,0.00,,,0.00,0,WeatherCatV1.11B39,2013-11-27 02:22:00,
2013-11-26 19:27:00,57.5,30.1,30.14,ENE,68,7.0,24.0,35,0.00,,,0.00,0,WeatherCatV1.11B39,2013-11-27 02:27:00,
2013-11-26 19:32:00,57.5,30.1,30.14,East,85,14.0,25.0,35,0.00,,,0.00,0,WeatherCatV1.11B39,2013-11-27 02:32:00,
2013-11-26 19:37:00,57.5,30.1,30.15,ENE,71,9.0,15.0,35,0.00,,,0.00,0,WeatherCatV1.11B39,2013-11-27 02:37:00,
2013-11-26 19:42:00,57.5,30.1,30.14,East,80,7.0,9.0,35,0.00,,,0.00,0,WeatherCatV1.11B39,2013-11-27 02:42:00,
2013-11-26 19:47:00,57.4,30.0,30.14,East,80,15.0,18.0,35,0.00,,,0.00,0,WeatherCatV1.11B39,2013-11-27 02:47:00,
2013-11-26 19:52:00,57.3,29.2,30.15,ESE,115,5.0,16.0,34,0.00,,,0.00,0,WeatherCatV1.11B39,2013-11-27 02:52:00,
2013-11-26 19:57:00,57.2,29.1,30.15,SE,140,7.0,13.0,34,0.00,,,0.00,0,WeatherCatV1.11B39,2013-11-27 02:57:00,
2013-11-26 20:02:00,57.3,29.2,30.15,SE,124,15.0,20.0,34,0.00,,,0.00,0,WeatherCatV1.11B39,2013-11-27 03:02:00,
2013-11-26 20:07:00,57.4,28.5,30.15,NE,49,19.0,31.0,33,0.00,,,0.00,0,WeatherCatV1.11B39,2013-11-27 03:07:00,
2013-11-26 20:12:00,57.4,28.5,30.16,East,95,11.0,26.0,33,0.00,,,0.00,0,WeatherCatV1.11B39,2013-11-27 03:12:00,
2013-11-26 20:17:00,57.3,28.4,30.16,ESE,122,8.0,16.0,33,0.00,,,0.00,0,WeatherCatV1.11B39,2013-11-27 03:17:00,
2013-11-26 20:22:00,57.2,28.4,30.16,ESE,108,11.0,19.0,33,0.00,,,0.00,0,WeatherCatV1.11B39,2013-11-27 03:22:00,
2013-11-26 20:27:00,57.1,28.3,30.16,ESE,118,4.0,11.0,33,0.00,,,0.00,0,WeatherCatV1.11B39,2013-11-27 03:27:00,
2013-11-26 20:32:00,56.9,28.1,30.16,East,82,6.0,10.0,33,0.00,,,0.00,0,WeatherCatV1.11B39,2013-11-27 03:32:00,
2013-11-26 20:37:00,56.8,28.0,30.16,East,99,3.0,15.0,33,0.00,,,0.00,0,WeatherCatV1.11B39,2013-11-27 03:37:00,
2013-11-26 20:42:00,56.7,27.9,30.16,SE,126,8.0,11.0,33,0.00,,,0.00,0,WeatherCatV1.11B39,2013-11-27 03:42:00,
2013-11-26 20:47:00,56.5,27.7,30.16,ENE,75,15.0,16.0,33,0.00,,,0.00,0,WeatherCatV1.11B39,2013-11-27 03:47:00,
2013-11-26 20:53:00,56.5,27.7,30.16,East,97,11.0,27.0,33,0.00,,,0.00,0,WeatherCatV1.11B39,2013-11-27 03:53:00,
2013-11-26 20:58:00,56.6,27.8,30.17,ESE,103,9.0,25.0,33,0.00,,,0.00,0,WeatherCatV1.11B39,2013-11-27 03:58:00,
2013-11-26 21:03:00,56.5,27.7,30.17,ESE,122,5.0,15.0,33,0.00,,,0.00,0,WeatherCatV1.11B39,2013-11-27 04:03:00,
2013-11-26 21:08:00,56.4,27.7,30.17,ESE,122,4.0,15.0,33,0.00,,,0.00,0,WeatherCatV1.11B39,2013-11-27 04:08:00,
2013-11-26 21:13:00,56.2,27.5,30.16,East,94,4.0,9.0,33,0.00,,,0.00,0,WeatherCatV1.11B39,2013-11-27 04:13:00,
2013-11-26 21:18:00,56.2,28.2,30.16,East,99,13.0,19.0,34,0.00,,,0.00,0,WeatherCatV1.11B39,2013-11-27 04:18:00,
2013-11-26 21:23:00,56.2,28.2,30.16,East,91,5.0,14.0,34,0.00,,,0.00,0,WeatherCatV1.11B39,2013-11-27 04:23:00,
2013-11-26 21:28:00,56.0,28.0,30.16,East,93,9.0,15.0,34,0.00,,,0.00,0,WeatherCatV1.11B39,2013-11-27 04:28:00,
2013-11-26 21:33:00,55.9,27.9,30.15,East,90,7.0,11.0,34,0.00,,,0.00,0,WeatherCatV1.11B39,2013-11-27 04:33:00,
2013-11-26 21:38:00,55.9,27.9,30.15,SE,128,5.0,16.0,34,0.00,,,0.00,0,WeatherCatV1.11B39,2013-11-27 04:38:00,
2013-11-26 21:43:00,55.9,27.2,30.16,East,86,7.0,12.0,33,0.00,,,0.00,0,WeatherCatV1.11B39,2013-11-27 04:43:00,
2013-11-26 21:48:00,55.8,27.9,30.16,ESE,117,4.0,14.0,34,0.00,,,0.00,0,WeatherCatV1.11B39,2013-11-27 04:48:00,
2013-11-26 21:53:00,55.9,27.2,30.16,East,91,12.0,17.0,33,0.00,,,0.00,0,WeatherCatV1.11B39,2013-11-27 04:53:00,
2013-11-26 21:58:00,55.9,27.9,30.15,NE,49,11.0,22.0,34,0.00,,,0.00,0,WeatherCatV1.11B39,2013-11-27 04:58:00,
2013-11-26 22:01:00,55.9,27.2,30.15,East,82,14.0,22.0,33,0.00,,,0.00,0,WeatherCatV1.11B39,2013-11-27 05:01:00,
2013-11-26 22:06:00,56.0,26.6,30.15,East,92,12.0,24.0,32,0.00,,,0.00,0,WeatherCatV1.11B39,2013-11-27 05:06:00,
2013-11-26 22:11:00,56.1,26.7,30.14,East,80,17.0,22.0,32,0.00,,,0.00,0,WeatherCatV1.11B39,2013-11-27 05:11:00,
2013-11-26 22:16:00,56.1,26.7,30.14,East,101,13.0,26.0,32,0.00,,,0.00,0,WeatherCatV1.11B39,2013-11-27 05:16:00,
2013-11-26 22:21:00,56.0,26.6,30.15,ENE,75,9.0,17.0,32,0.00,,,0.00,0,WeatherCatV1.11B39,2013-11-27 05:21:00,
2013-11-26 22:26:00,55.8,27.1,30.15,East,84,16.0,21.0,33,0.00,,,0.00,0,WeatherCatV1.11B39,2013-11-27 05:26:00,
2013-11-26 22:31:00,55.7,26.3,30.15,ENE,77,15.0,24.0,32,0.00,,,0.00,0,WeatherCatV1.11B39,2013-11-27 05:31:00,
2013-11-26 22:36:00,55.9,26.5,30.15,ESE,115,7.0,17.0,32,0.00,,,0.00,0,WeatherCatV1.11B39,2013-11-27 05:36:00,
2013-11-26 22:41:00,55.9,26.5,30.16,ESE,107,14.0,22.0,32,0.00,,,0.00,0,WeatherCatV1.11B39,2013-11-27 05:41:00,
2013-11-26 22:46:00,55.9,25.7,30.16,East,98,16.0,23.0,31,0.00,,,0.00,0,WeatherCatV1.11B39,2013-11-27 05:46:00,
2013-11-26 22:51:00,56.0,26.6,30.16,ESE,105,8.0,16.0,32,0.00,,,0.00,0,WeatherCatV1.11B39,2013-11-27 05:51:00,
2013-11-26 22:56:00,55.8,26.4,30.15,ESE,112,5.0,9.0,32,0.00,,,0.00,0,WeatherCatV1.11B39,2013-11-27 05:56:00,
2013-11-26 23:01:00,55.5,26.9,30.15,South,182,6.0,12.0,33,0.00,,,0.00,0,WeatherCatV1.11B39,2013-11-27 06:01:00,
2013-11-26 23:06:00,55.1,26.5,30.15,SE,141,5.0,9.0,33,0.00,,,0.00,0,WeatherCatV1.11B39,2013-11-27 06:06:00,
2013-11-26 23:11:00,55.0,26.4,30.15,East,98,14.0,14.0,33,0.00,,,0.00,0,WeatherCatV1.11B39,2013-11-27 06:11:00,
2013-11-26 23:16:00,55.1,26.5,30.16,East,97,11.0,15.0,33,0.00,,,0.00,0,WeatherCatV1.11B39,2013-11-27 06:16:00,
2013-11-26 23:21:00,55.3,26.7,30.15,ESE,111,13.0,16.0,33,0.00,,,0.00,0,WeatherCatV1.11B39,2013-11-27 06:21:00,
2013-11-26 23:26:00,55.5,26.1,30.15,NE,56,19.0,19.0,32,0.00,,,0.00,0,WeatherCatV1.11B39,2013-11-27 06:26:00,
2013-11-26 23:31:00,55.6,26.2,30.14,East,92,16.0,17.0,32,0.00,,,0.00,0,WeatherCatV1.11B39,2013-11-27 06:31:00,
2013-11-26 23:36:00,55.4,26.0,30.14,East,93,8.0,19.0,32,0.00,,,0.00,0,WeatherCatV1.11B39,2013-11-27 06:36:00,
2013-11-26 23:41:00,55.5,25.4,30.14,ESE,102,8.0,12.0,31,0.00,,,0.00,0,WeatherCatV1.11B39,2013-11-27 06:41:00,
2013-11-26 23:46:00,55.4,26.0,30.14,NE,53,13.0,19.0,32,0.00,,,0.00,0,WeatherCatV1.11B39,2013-11-27 06:46:00,
2013-11-26 23:51:00,55.5,25.4,30.14,SSE,151,6.0,10.0,31,0.00,,,0.00,0,WeatherCatV1.11B39,2013-11-27 06:51:00,
2013-11-26 23:56:00,55.5,24.6,30.14,ENE,63,16.0,16.0,30,0.00,,,0.00,0,WeatherCatV1.11B39,2013-11-27 06:56:00,